Aviation Digital Data Service (ADDS)

Output produced by METARs form (0344 UTC 21 October 2014)
found at http://www.aviationweather.gov/adds/metars/
 
KESN 210340Z AUTO 00000KT 10SM CLR 13/10 A3000 RMK AO2 T01260100